Time;durP1;ratioP1;P1;durP2;ratioP2;P2;SDS_P1;SDS_P2;PMS_P1;PMS_P2;Temp;Humidity;BMP_temperature;BMP_pressure;BME280_temperature;BME280_humidity;BME280_pressure;Samples;Min_cycle;Max_cycle;Signal;HPM_P1;HPM_P2
2023/10/25 00:01:14;;;;;;;18.48;4.35;;;;;;;15.23;48.64;93465.09;5015014;28;20029;-77
2023/10/25 00:03:40;;;;;;;7.05;2.80;;;;;;;15.27;48.89;93465.19;5013319;28;20038;-76
2023/10/25 00:06:05;;;;;;;11.80;4.57;;;;;;;15.29;48.26;93462.94;4995676;28;20041;-77
2023/10/25 00:08:31;;;;;;;12.98;3.63;;;;;;;15.29;49.11;93457.56;5014310;28;20109;-76
2023/10/25 00:11:04;;;;;;;9.75;2.90;;;;;;;15.12;48.93;93415.88;5012409;28;20108;-77
2023/10/25 00:13:29;;;;;;;8.48;4.05;;;;;;;15.03;49.14;93407.28;5016874;28;20483;-76
2023/10/25 00:15:55;;;;;;;12.68;3.60;;;;;;;15.31;48.59;93423.16;5013378;28;20056;-76
2023/10/25 00:18:20;;;;;;;13.18;4.53;;;;;;;15.30;48.72;93437.72;5018656;28;20041;-77
2023/10/25 00:20:45;;;;;;;12.77;4.25;;;;;;;15.28;48.63;93440.72;5021339;28;20025;-76
2023/10/25 00:23:11;;;;;;;12.48;4.32;;;;;;;15.16;48.77;93435.47;4998997;28;20776;-76
2023/10/25 00:25:36;;;;;;;10.23;3.85;;;;;;;15.19;48.95;93442.84;5017019;28;20465;-78
2023/10/25 00:28:01;;;;;;;13.30;5.45;;;;;;;15.17;49.18;93449.66;5016789;28;20033;-76
2023/10/25 00:30:27;;;;;;;12.68;3.10;;;;;;;15.06;49.60;93454.78;5016656;28;20033;-76
2023/10/25 00:32:53;;;;;;;11.73;4.78;;;;;;;15.05;49.53;93442.53;5015756;28;20087;-77
2023/10/25 00:35:18;;;;;;;13.73;4.57;;;;;;;14.96;49.77;93431.25;5015569;28;20079;-77
2023/10/25 00:37:43;;;;;;;15.75;3.88;;;;;;;14.95;49.50;93406.34;5019679;28;20025;-77
2023/10/25 00:40:09;;;;;;;7.90;4.00;;;;;;;14.98;49.58;93418.25;5018810;28;20037;-77
2023/10/25 00:42:34;;;;;;;13.00;3.53;;;;;;;15.03;49.45;93407.28;5018879;28;20040;-76
2023/10/25 00:45:00;;;;;;;11.45;4.05;;;;;;;15.06;49.28;93417.28;5019912;28;20034;-77
2023/10/25 00:47:25;;;;;;;17.67;4.15;;;;;;;14.98;49.95;93410.22;5017690;28;20033;-77
2023/10/25 00:49:51;;;;;;;16.80;4.10;;;;;;;14.87;49.92;93404.63;5018733;28;20029;-76
2023/10/25 00:52:17;;;;;;;13.85;4.80;;;;;;;15.01;49.86;93417.53;5020282;28;20142;-76
2023/10/25 00:54:43;;;;;;;14.18;3.85;;;;;;;15.04;49.77;93451.69;5017452;28;20029;-77
2023/10/25 00:57:14;;;;;;;9.85;3.35;;;;;;;14.99;49.84;93433.22;5019570;28;20584;-77
2023/10/25 00:59:40;;;;;;;13.90;4.05;;;;;;;14.94;50.14;93442.28;5002535;28;20044;-76
2023/10/25 01:02:07;;;;;;;14.88;4.15;;;;;;;15.04;50.15;93435.63;5016109;28;20033;-76
2023/10/25 01:04:34;;;;;;;18.73;3.95;;;;;;;15.06;50.23;93425.31;5018610;28;20030;-77
2023/10/25 01:06:59;;;;;;;13.20;4.88;;;;;;;15.05;49.94;93410.38;5017251;28;20455;-76
2023/10/25 01:09:32;;;;;;;15.48;5.25;;;;;;;15.06;49.94;93395.09;5001016;28;20033;-77
2023/10/25 01:11:58;;;;;;;13.85;4.13;;;;;;;15.05;49.72;93383.63;4995776;28;20106;-76
2023/10/25 01:14:28;;;;;;;15.82;4.90;;;;;;;15.20;49.74;93406.88;5017022;28;20037;-78
2023/10/25 01:16:53;;;;;;;15.20;4.07;;;;;;;15.19;49.38;93399.97;5018787;28;20053;-77
2023/10/25 01:19:18;;;;;;;9.27;3.45;;;;;;;14.94;49.89;93383.38;5018463;28;20510;-77
2023/10/25 01:21:44;;;;;;;13.25;3.72;;;;;;;14.63;50.73;93350.56;5019635;28;20772;-77
2023/10/25 01:24:10;;;;;;;18.17;4.10;;;;;;;14.96;50.28;93397.19;5016333;28;20091;-77
2023/10/25 01:26:35;;;;;;;15.77;5.35;;;;;;;15.04;50.18;93398.13;5019747;28;20217;-77
2023/10/25 01:29:01;;;;;;;12.73;3.88;;;;;;;15.02;49.92;93389.66;5015375;28;20033;-78
2023/10/25 01:31:26;;;;;;;15.82;4.68;;;;;;;15.00;49.74;93391.91;5003795;28;20367;-76
2023/10/25 01:33:52;;;;;;;13.32;3.70;;;;;;;14.81;50.16;93357.88;5003396;28;20044;-76
2023/10/25 01:36:17;;;;;;;12.00;4.05;;;;;;;14.89;49.98;93383.66;5018435;28;20034;-77
2023/10/25 01:38:43;;;;;;;17.50;4.07;;;;;;;15.02;50.23;93395.00;5016815;28;20270;-76
2023/10/25 01:41:15;;;;;;;11.75;4.78;;;;;;;14.92;50.11;93384.84;5003249;28;20021;-77
2023/10/25 01:43:41;;;;;;;12.57;3.50;;;;;;;14.95;50.03;93398.31;5017450;28;20029;-77
2023/10/25 01:46:06;;;;;;;19.02;4.30;;;;;;;14.80;50.42;93406.41;5017613;28;20029;-77
2023/10/25 01:48:32;;;;;;;8.65;3.85;;;;;;;14.72;50.44;93418.03;4998435;28;20034;-77
2023/10/25 01:50:57;;;;;;;19.73;5.03;;;;;;;14.83;50.39;93429.78;5001149;28;20036;-77
2023/10/25 01:53:22;;;;;;;12.05;3.80;;;;;;;14.79;50.11;93418.22;5016474;28;20103;-77
2023/10/25 01:55:50;;;;;;;13.07;4.70;;;;;;;14.81;50.53;93421.34;5020438;28;20021;-77
2023/10/25 01:58:16;;;;;;;15.70;3.88;;;;;;;14.88;50.31;93441.00;5015369;28;20045;-77
2023/10/25 02:00:41;;;;;;;15.70;4.57;;;;;;;14.82;49.83;93422.88;5018886;28;20403;-77
2023/10/25 02:03:07;;;;;;;12.00;3.85;;;;;;;14.63;49.94;93394.16;5017091;28;20042;-77
2023/10/25 02:05:32;;;;;;;13.27;3.78;;;;;;;15.00;50.08;93437.44;5016613;28;20107;-77
2023/10/25 02:07:58;;;;;;;15.15;4.63;;;;;;;14.97;50.08;93452.28;5016171;28;20037;-76
2023/10/25 02:10:23;;;;;;;10.32;4.25;;;;;;;14.84;50.02;93432.13;5017083;28;20017;-77
2023/10/25 02:12:48;;;;;;;15.40;5.47;;;;;;;14.94;50.54;93426.22;5018105;28;20110;-78
2023/10/25 02:15:14;;;;;;;11.68;4.60;;;;;;;14.97;49.89;93420.16;4994737;28;20048;-78
2023/10/25 02:17:39;;;;;;;13.77;4.03;;;;;;;14.92;49.68;93407.03;5014546;28;20469;-76
2023/10/25 02:20:05;;;;;;;11.60;4.43;;;;;;;14.99;50.10;93414.47;5017063;28;20033;-78
2023/10/25 02:22:31;;;;;;;12.75;4.65;;;;;;;14.94;50.39;93417.41;5015937;28;20025;-76
2023/10/25 02:24:56;;;;;;;17.25;5.05;;;;;;;14.83;50.57;93392.28;5017541;28;20048;-77
2023/10/25 02:27:22;;;;;;;15.88;4.32;;;;;;;14.96;50.12;93421.28;5013879;28;20091;-76
2023/10/25 02:29:49;;;;;;;9.90;4.60;;;;;;;14.93;50.24;93397.13;5016069;28;20030;-77
2023/10/25 02:32:14;;;;;;;13.32;5.10;;;;;;;14.93;50.06;93400.56;5016150;28;20045;-76
2023/10/25 02:34:40;;;;;;;13.32;4.38;;;;;;;14.91;50.09;93394.03;5016513;28;20033;-77
2023/10/25 02:37:05;;;;;;;11.60;3.67;;;;;;;14.61;50.94;93337.53;5014290;28;20739;-77
2023/10/25 02:39:30;;;;;;;15.75;4.90;;;;;;;14.83;50.10;93355.59;5016679;28;20037;-77
2023/10/25 02:41:56;;;;;;;14.15;3.90;;;;;;;14.71;50.19;93333.53;5012748;28;20031;-76
2023/10/25 02:44:21;;;;;;;21.20;5.35;;;;;;;14.82;50.29;93337.19;5018279;28;20034;-77
2023/10/25 02:46:47;;;;;;;14.10;4.60;;;;;;;14.85;50.03;93320.44;5016501;28;20396;-77
2023/10/25 02:49:12;;;;;;;14.00;5.07;;;;;;;14.90;49.99;93296.09;5019154;28;20041;-76
2023/10/25 02:51:38;;;;;;;10.98;4.97;;;;;;;14.94;50.45;93299.59;5000473;28;20078;-77
2023/10/25 02:54:04;;;;;;;13.13;4.82;;;;;;;15.04;49.98;93301.72;5018052;28;20036;-77
2023/10/25 02:56:29;;;;;;;16.77;4.20;;;;;;;14.97;50.38;93269.44;5017496;28;20034;-76
2023/10/25 02:58:55;;;;;;;19.40;4.68;;;;;;;15.22;50.04;93296.69;5015677;28;20563;-77
2023/10/25 03:01:24;;;;;;;25.13;5.20;;;;;;;14.92;49.37;93291.13;5020051;28;20029;-77
2023/10/25 03:03:51;;;;;;;20.10;4.65;;;;;;;14.90;48.87;93293.41;5016321;28;20139;-76
2023/10/25 03:06:16;;;;;;;13.43;3.92;;;;;;;15.03;49.71;93278.75;5017598;28;20133;-76
2023/10/25 03:08:42;;;;;;;15.68;4.25;;;;;;;15.06;48.47;93277.28;5013209;28;20735;-78
2023/10/25 03:11:08;;;;;;;20.48;5.30;;;;;;;15.14;49.09;93289.66;5018057;28;20025;-78
2023/10/25 03:13:33;;;;;;;18.92;5.03;;;;;;;15.23;48.81;93282.94;5015778;28;20021;-77
2023/10/25 03:15:58;;;;;;;12.80;4.57;;;;;;;14.93;49.83;93287.34;5016073;28;20462;-77
2023/10/25 03:18:24;;;;;;;14.82;5.22;;;;;;;14.97;49.92;93286.28;5014897;28;20048;-77
2023/10/25 03:20:49;;;;;;;15.73;4.30;;;;;;;14.93;50.13;93268.59;4997075;28;20026;-78
2023/10/25 03:23:15;;;;;;;16.88;4.80;;;;;;;15.07;49.44;93279.56;5016319;28;20038;-77
2023/10/25 03:25:40;;;;;;;19.48;4.70;;;;;;;14.89;50.05;93281.13;5015441;28;20120;-77
2023/10/25 03:28:06;;;;;;;16.48;5.20;;;;;;;15.00;49.59;93282.13;5016916;28;20037;-76
2023/10/25 03:30:31;;;;;;;18.30;5.53;;;;;;;14.85;50.67;93267.69;4999703;28;20199;-78
2023/10/25 03:32:56;;;;;;;17.05;4.70;;;;;;;14.92;49.88;93262.47;4999560;28;20547;-76
2023/10/25 03:35:22;;;;;;;19.92;5.55;;;;;;;14.98;50.14;93281.69;5016902;28;20491;-76
2023/10/25 03:37:47;;;;;;;16.20;4.70;;;;;;;15.14;49.42;93295.78;5000632;28;20068;-76
2023/10/25 03:40:13;;;;;;;15.32;5.35;;;;;;;14.98;49.76;93292.41;5015802;28;20791;-76
2023/10/25 03:42:39;;;;;;;12.73;4.70;;;;;;;14.96;50.07;93305.38;4998790;28;20034;-76
2023/10/25 03:45:06;;;;;;;10.57;4.40;;;;;;;15.25;49.84;93302.13;5017731;28;20047;-76
2023/10/25 03:47:39;;;;;;;16.73;5.13;;;;;;;14.89;49.30;93268.53;5017162;28;20233;-76
2023/10/25 03:50:06;;;;;;;11.98;4.93;;;;;;;14.93;50.03;93306.06;5014739;28;20064;-78
2023/10/25 03:52:32;;;;;;;18.00;5.38;;;;;;;15.16;49.36;93317.63;5000372;28;20031;-76
2023/10/25 03:54:57;;;;;;;22.92;5.95;;;;;;;15.02;50.65;93288.66;4999305;28;20022;-78
2023/10/25 03:57:23;;;;;;;22.67;5.93;;;;;;;15.05;50.20;93308.63;5017930;28;20517;-79
2023/10/25 03:59:48;;;;;;;15.55;5.38;;;;;;;15.20;50.45;93291.72;5015499;28;20483;-78
2023/10/25 04:02:14;;;;;;;17.42;4.90;;;;;;;15.33;50.16;93289.63;5016370;28;20736;-78
2023/10/25 04:04:39;;;;;;;19.52;5.55;;;;;;;15.28;49.96;93261.22;5014791;28;20029;-78
2023/10/25 04:07:05;;;;;;;13.55;5.13;;;;;;;15.51;50.44;93281.94;5015669;28;20037;-77
2023/10/25 04:09:30;;;;;;;13.40;5.95;;;;;;;15.42;50.29;93264.16;5013842;28;20037;-79
2023/10/25 04:11:55;;;;;;;17.83;4.80;;;;;;;15.55;49.64;93280.13;4991836;28;20030;-79
2023/10/25 04:14:21;;;;;;;20.55;5.60;;;;;;;15.48;49.88;93288.03;4994442;28;20045;-77
2023/10/25 04:16:46;;;;;;;19.02;6.93;;;;;;;15.48;50.28;93293.38;4980229;28;20068;-78
2023/10/25 04:19:12;;;;;;;12.68;4.70;;;;;;;15.45;49.88;93284.13;4977646;28;20489;-77
2023/10/25 04:21:37;;;;;;;17.20;6.07;;;;;;;15.27;49.64;93259.69;4996548;28;20030;-76
2023/10/25 04:24:03;;;;;;;18.77;6.60;;;;;;;15.41;49.98;93289.41;4994571;28;20057;-77
2023/10/25 04:26:29;;;;;;;17.85;5.78;;;;;;;15.43;50.10;93281.78;4979639;28;20042;-77
2023/10/25 04:28:54;;;;;;;18.25;5.95;;;;;;;15.46;49.62;93289.16;4994163;28;20793;-78
2023/10/25 04:31:20;;;;;;;11.02;5.28;;;;;;;15.46;49.43;93283.78;4979102;28;20045;-77
2023/10/25 04:33:47;;;;;;;16.33;5.30;;;;;;;15.48;49.18;93271.94;4994504;28;20022;-79
2023/10/25 04:36:13;;;;;;;16.80;5.53;;;;;;;15.52;49.62;93273.56;4974757;28;20046;-77
2023/10/25 04:38:38;;;;;;;19.55;5.50;;;;;;;15.43;49.83;93243.50;4993570;28;20042;-78
2023/10/25 04:41:04;;;;;;;14.73;5.45;;;;;;;15.66;49.40;93264.97;4999142;28;20036;-77
2023/10/25 04:43:30;;;;;;;16.65;5.90;;;;;;;15.55;49.76;93247.97;5001544;28;20052;-78
2023/10/25 04:45:57;;;;;;;17.33;6.45;;;;;;;15.58;49.62;93260.63;5000274;28;20523;-77
2023/10/25 04:48:24;;;;;;;18.58;5.20;;;;;;;15.36;50.06;93238.78;5015813;28;20037;-79
2023/10/25 04:50:50;;;;;;;15.90;5.65;;;;;;;15.38;50.08;93227.72;4999369;28;20491;-79
2023/10/25 04:53:15;;;;;;;18.33;5.15;;;;;;;15.40;50.34;93218.19;5014425;28;20029;-78
2023/10/25 04:55:45;;;;;;;18.58;4.82;;;;;;;15.15;50.53;93222.34;5018001;28;20087;-77
2023/10/25 04:58:11;;;;;;;22.85;7.68;;;;;;;15.02;51.77;93208.34;5015925;28;20049;-78
2023/10/25 05:00:36;;;;;;;16.42;4.65;;;;;;;14.86;51.48;93196.19;5012408;28;20034;-78
2023/10/25 05:03:05;;;;;;;15.40;4.82;;;;;;;14.98;51.60;93218.22;5032698;28;20044;-77
2023/10/25 05:05:30;;;;;;;21.27;6.93;;;;;;;14.39;51.91;93207.84;5023190;28;20033;-76
2023/10/25 05:07:56;;;;;;;22.48;6.57;;;;;;;14.28;52.99;93230.91;5018554;28;20032;-77
2023/10/25 05:10:22;;;;;;;24.13;6.50;;;;;;;14.30;53.03;93196.56;5015054;28;20114;-78
2023/10/25 05:12:48;;;;;;;27.10;6.30;;;;;;;14.35;52.79;93249.03;5019465;28;20283;-78
2023/10/25 05:15:18;;;;;;;19.83;6.38;;;;;;;14.56;52.86;93249.50;5001268;28;22108;-76
2023/10/25 05:17:45;;;;;;;19.83;5.97;;;;;;;14.32;52.58;93233.69;5018366;28;20487;-78
2023/10/25 05:20:11;;;;;;;18.17;6.40;;;;;;;14.56;52.24;93234.22;5002078;28;20045;-77
2023/10/25 05:22:42;;;;;;;20.40;6.00;;;;;;;14.59;51.97;93238.09;5019297;28;20025;-76
2023/10/25 05:25:09;;;;;;;21.75;5.75;;;;;;;14.77;52.04;93241.13;5018470;28;20244;-76
2023/10/25 05:27:36;;;;;;;20.05;5.28;;;;;;;14.76;52.13;93244.94;4998146;28;20042;-76
2023/10/25 05:30:03;;;;;;;17.52;5.70;;;;;;;14.89;52.13;93219.56;4999247;28;20041;-77
2023/10/25 05:32:31;;;;;;;19.67;5.88;;;;;;;15.12;51.89;93223.06;5013719;28;20052;-77
2023/10/25 05:34:57;;;;;;;16.83;6.72;;;;;;;15.10;51.90;93225.31;4998584;28;20581;-76
2023/10/25 05:37:23;;;;;;;16.15;5.90;;;;;;;15.00;51.46;93199.13;5001044;28;20590;-77
2023/10/25 05:39:49;;;;;;;17.73;5.40;;;;;;;15.11;51.90;93226.84;5015981;28;20041;-77
2023/10/25 05:42:19;;;;;;;19.73;5.55;;;;;;;15.08;51.89;93226.78;5016016;28;20575;-77
2023/10/25 05:44:45;;;;;;;22.17;5.43;;;;;;;15.29;51.45;93240.59;5016298;28;20500;-76
2023/10/25 05:47:11;;;;;;;20.27;6.13;;;;;;;15.26;51.51;93233.25;5016665;28;20058;-77
2023/10/25 05:49:36;;;;;;;21.65;6.30;;;;;;;15.40;51.18;93220.88;4995837;28;20033;-77
2023/10/25 05:52:05;;;;;;;16.98;5.75;;;;;;;15.27;50.64;93190.03;5018522;28;20090;-76
2023/10/25 05:54:31;;;;;;;22.48;7.00;;;;;;;15.30;50.28;93231.41;5009985;28;20045;-76
2023/10/25 05:56:59;;;;;;;22.42;5.68;;;;;;;15.22;49.69;93217.13;5017530;28;20037;-77
2023/10/25 05:59:24;;;;;;;18.35;5.35;;;;;;;15.19;50.17;93231.22;5018728;28;20083;-76
2023/10/25 06:02:04;;;;;;;21.05;5.43;;;;;;;15.10;50.19;93219.19;5015953;28;20430;-76
2023/10/25 06:04:34;;;;;;;29.27;6.25;;;;;;;15.06;50.69;93251.25;5014749;28;20506;-77
2023/10/25 06:06:59;;;;;;;28.63;5.97;;;;;;;15.28;51.02;93242.47;5015629;28;20160;-76
2023/10/25 06:09:25;;;;;;;23.42;5.50;;;;;;;14.62;51.34;93248.09;5015501;28;20507;-77
2023/10/25 06:11:52;;;;;;;18.02;5.55;;;;;;;14.96;50.98;93268.66;4998530;28;20081;-78
2023/10/25 06:14:17;;;;;;;22.73;6.10;;;;;;;15.17;50.97;93265.63;5015568;28;20068;-77
2023/10/25 06:16:43;;;;;;;24.60;5.97;;;;;;;14.94;51.65;93227.31;5015496;28;20503;-78
2023/10/25 06:19:09;;;;;;;25.55;6.10;;;;;;;15.25;50.24;93275.34;5013913;28;20407;-77
2023/10/25 06:21:34;;;;;;;19.83;6.13;;;;;;;15.25;51.05;93270.00;4996865;28;20075;-77
2023/10/25 06:23:59;;;;;;;26.45;5.78;;;;;;;14.99;52.37;93248.44;5016678;28;20140;-76
2023/10/25 06:26:25;;;;;;;40.38;5.80;;;;;;;15.16;48.62;93210.50;5018584;28;20889;-77
2023/10/25 06:28:52;;;;;;;37.95;7.60;;;;;;;15.45;49.50;93233.22;5016785;28;20021;-76
2023/10/25 06:31:17;;;;;;;33.63;7.72;;;;;;;15.49;49.88;93238.66;4997891;28;20044;-77
2023/10/25 06:33:42;;;;;;;33.60;6.65;;;;;;;15.41;50.37;93237.72;5016582;28;20428;-76
2023/10/25 06:36:09;;;;;;;41.25;9.25;;;;;;;15.70;50.07;93241.69;5001189;28;20495;-77
2023/10/25 06:38:40;;;;;;;24.67;6.53;;;;;;;15.77;50.06;93249.84;5015934;28;20551;-77
2023/10/25 06:41:17;;;;;;;24.05;7.28;;;;;;;15.74;50.72;93237.16;5017027;28;20119;-77
2023/10/25 06:43:43;;;;;;;25.42;6.88;;;;;;;15.54;51.02;93238.38;5015792;28;20049;-77
2023/10/25 06:46:09;;;;;;;24.17;7.40;;;;;;;15.63;50.40;93242.34;4995981;28;20033;-77
2023/10/25 06:48:35;;;;;;;28.95;7.88;;;;;;;15.36;51.44;93256.75;5011572;28;20060;-77
2023/10/25 06:51:04;;;;;;;28.23;7.15;;;;;;;15.12;51.89;93244.47;5003079;28;20037;-77
2023/10/25 06:53:30;;;;;;;27.05;8.70;;;;;;;14.97;52.57;93264.06;5005032;28;20503;-78
2023/10/25 06:55:56;;;;;;;26.52;7.82;;;;;;;15.28;52.24;93269.28;5005662;28;20436;-77
2023/10/25 06:58:22;;;;;;;19.88;6.15;;;;;;;15.53;51.98;93277.78;5004964;28;20091;-77
2023/10/25 07:00:50;;;;;;;30.23;7.53;;;;;;;15.58;51.71;93260.63;5007013;28;20425;-77
2023/10/25 07:03:17;;;;;;;28.40;8.05;;;;;;;15.94;51.65;93267.38;5006301;28;20026;-78
2023/10/25 07:05:44;;;;;;;20.45;7.13;;;;;;;16.13;49.81;93241.22;5005199;28;20050;-76
2023/10/25 07:08:10;;;;;;;25.70;6.78;;;;;;;16.22;49.11;93259.75;5005120;28;20192;-78
2023/10/25 07:10:36;;;;;;;25.40;7.47;;;;;;;16.25;49.13;93273.19;5005987;28;20029;-77
2023/10/25 07:13:04;;;;;;;21.35;5.85;;;;;;;16.09;49.28;93258.38;5006734;28;20132;-78
2023/10/25 07:15:32;;;;;;;23.63;7.15;;;;;;;15.89;48.78;93273.78;5005415;28;20131;-79
2023/10/25 07:17:58;;;;;;;23.38;7.88;;;;;;;15.45;50.89;93268.84;5000664;28;20041;-78
2023/10/25 07:20:23;;;;;;;26.25;7.72;;;;;;;15.58;51.18;93255.28;4995337;28;20083;-77
2023/10/25 07:22:49;;;;;;;28.25;8.77;;;;;;;15.74;49.13;93254.00;5001576;28;20059;-78
2023/10/25 07:25:14;;;;;;;29.02;8.50;;;;;;;15.81;50.59;93285.53;5000968;28;20038;-77
2023/10/25 07:27:40;;;;;;;24.90;7.20;;;;;;;15.79;49.89;93271.72;5004518;28;20045;-78
2023/10/25 07:30:06;;;;;;;35.10;8.57;;;;;;;15.54;49.85;93227.66;5005133;28;20033;-77
2023/10/25 07:32:32;;;;;;;23.52;7.70;;;;;;;15.46;51.07;93265.03;5005539;28;20168;-78
2023/10/25 07:34:57;;;;;;;23.15;7.72;;;;;;;15.85;51.27;93300.53;5005322;28;20480;-77
2023/10/25 07:37:23;;;;;;;30.15;8.45;;;;;;;15.97;50.03;93299.59;5006112;28;20551;-77
2023/10/25 07:39:48;;;;;;;25.38;6.18;;;;;;;15.86;49.82;93261.09;5005154;28;20530;-78
2023/10/25 07:42:14;;;;;;;24.80;6.65;;;;;;;15.88;49.69;93288.34;4986731;28;20120;-77
2023/10/25 07:44:40;;;;;;;24.02;7.07;;;;;;;16.02;49.84;93312.69;5002816;28;20061;-78
2023/10/25 07:47:05;;;;;;;25.85;7.32;;;;;;;15.57;49.88;93256.41;4989748;28;20095;-77
2023/10/25 07:49:35;;;;;;;28.17;7.25;;;;;;;15.77;50.22;93298.88;5006293;28;20033;-78
2023/10/25 07:52:00;;;;;;;20.42;7.65;;;;;;;15.69;49.59;93294.53;4988063;28;20045;-78
2023/10/25 07:54:26;;;;;;;25.17;7.18;;;;;;;15.99;50.07;93313.41;4989896;28;20026;-77
2023/10/25 07:56:51;;;;;;;36.60;7.45;;;;;;;15.92;49.05;93313.31;5007004;28;20041;-77
2023/10/25 07:59:16;;;;;;;22.52;6.15;;;;;;;16.13;49.72;93308.28;4989040;28;20373;-77
2023/10/25 08:01:42;;;;;;;26.50;6.43;;;;;;;16.41;49.26;93293.78;5006316;28;20059;-78
2023/10/25 08:04:08;;;;;;;20.88;5.80;;;;;;;16.61;48.82;93309.41;5004811;28;20041;-79
2023/10/25 08:06:34;;;;;;;15.00;6.72;;;;;;;16.28;48.23;93310.03;5006356;28;20433;-78
2023/10/25 08:08:59;;;;;;;26.92;6.57;;;;;;;16.39;48.64;93347.03;5001833;28;20049;-78
2023/10/25 08:11:25;;;;;;;25.10;6.68;;;;;;;16.33;47.99;93323.16;4997113;28;20395;-80
2023/10/25 08:13:50;;;;;;;18.17;6.07;;;;;;;16.29;48.52;93353.75;5003529;28;20391;-79
2023/10/25 08:16:16;;;;;;;24.63;7.25;;;;;;;16.55;47.77;93320.81;5003616;28;20376;-77
2023/10/25 08:18:41;;;;;;;22.02;6.57;;;;;;;16.39;48.05;93312.13;5006025;28;20483;-78
2023/10/25 08:21:13;;;;;;;30.75;6.05;;;;;;;16.68;48.27;93319.44;4985225;28;20548;-77
2023/10/25 08:23:38;;;;;;;23.67;6.38;;;;;;;16.83;48.06;93329.25;4998767;28;20073;-78
2023/10/25 08:26:04;;;;;;;21.42;7.50;;;;;;;16.74;46.83;93293.84;4984352;28;20505;-77
2023/10/25 08:28:29;;;;;;;27.67;6.15;;;;;;;16.85;46.74;93327.00;4988418;28;20040;-79
2023/10/25 08:30:55;;;;;;;22.83;7.35;;;;;;;16.48;47.50;93324.16;4987724;28;20606;-76
2023/10/25 08:33:21;;;;;;;29.63;6.35;;;;;;;16.38;48.20;93348.19;5000918;28;20034;-78
2023/10/25 08:35:47;;;;;;;25.65;5.78;;;;;;;16.45;47.64;93327.56;5005942;28;20297;-77
2023/10/25 08:38:12;;;;;;;22.23;5.88;;;;;;;16.49;47.63;93343.72;4993086;28;20037;-78
2023/10/25 08:40:40;;;;;;;39.75;9.45;;;;;;;16.66;48.35;93313.69;5007092;28;20065;-75
2023/10/25 08:43:06;;;;;;;22.52;8.25;;;;;;;17.05;47.35;93341.06;5008160;28;20555;-78
2023/10/25 08:45:35;;;;;;;33.10;7.72;;;;;;;17.20;46.82;93334.75;5009542;28;20033;-78
2023/10/25 08:48:04;;;;;;;31.55;8.18;;;;;;;17.35;46.27;93333.78;5009681;28;20033;-78
2023/10/25 08:50:33;;;;;;;33.72;7.15;;;;;;;17.37;45.91;93336.09;4989001;28;20858;-79
2023/10/25 08:52:59;;;;;;;25.30;5.95;;;;;;;17.21;46.27;93338.97;5008752;28;20617;-78
2023/10/25 08:55:24;;;;;;;26.67;7.75;;;;;;;17.27;46.30;93334.06;5008829;28;20480;-78
2023/10/25 08:57:56;;;;;;;23.67;6.70;;;;;;;17.47;46.10;93341.59;4986750;28;20123;-75
2023/10/25 09:00:22;;;;;;;35.00;9.00;;;;;;;17.44;45.92;93288.56;5008378;28;20044;-76
2023/10/25 09:02:49;;;;;;;28.00;6.35;;;;;;;17.77;46.07;93306.56;5007668;28;20089;-76
2023/10/25 09:05:15;;;;;;;40.08;7.35;;;;;;;17.94;45.83;93327.50;5009210;28;21206;-75
2023/10/25 09:07:40;;;;;;;40.78;8.75;;;;;;;18.06;45.49;93328.38;4999487;28;20331;-76
2023/10/25 09:10:22;;;;;;;33.53;7.05;;;;;;;18.17;44.72;93313.09;4994246;28;20530;-75
2023/10/25 09:12:50;;;;;;;31.30;6.95;;;;;;;18.31;44.24;93305.13;4989367;28;20854;-78
2023/10/25 09:15:29;;;;;;;29.38;7.60;;;;;;;18.63;44.28;93340.34;5012462;28;20234;-76
2023/10/25 09:17:56;;;;;;;29.55;7.00;;;;;;;18.62;43.33;93338.81;4995305;28;20037;-79
2023/10/25 09:20:28;;;;;;;27.15;6.35;;;;;;;18.36;43.66;93320.94;5015605;28;20135;-78
2023/10/25 09:23:11;;;;;;;32.00;5.57;;;;;;;18.49;43.00;93322.16;5016434;28;20029;-77
2023/10/25 09:25:37;;;;;;;35.03;6.55;;;;;;;18.55;43.24;93322.59;5017124;28;20184;-77
2023/10/25 09:28:27;;;;;;;37.17;8.38;;;;;;;18.36;43.15;93329.00;5016000;28;20692;-78
2023/10/25 09:31:02;;;;;;;33.08;5.93;;;;;;;18.17;43.12;93307.72;4997640;28;20823;-76
2023/10/25 09:33:29;;;;;;;27.75;6.00;;;;;;;18.39;43.45;93339.78;4998740;28;20030;-75
2023/10/25 09:35:55;;;;;;;28.20;6.38;;;;;;;18.50;43.21;93309.47;5014581;28;20375;-76
2023/10/25 09:38:21;;;;;;;33.58;7.63;;;;;;;18.74;42.56;93317.75;5016995;28;20033;-77
2023/10/25 09:40:47;;;;;;;35.67;6.70;;;;;;;18.91;43.93;93310.94;5010589;28;20025;-76
2023/10/25 09:43:20;;;;;;;26.63;5.80;;;;;;;19.04;43.51;93311.38;5007779;28;20227;-76
2023/10/25 09:45:53;;;;;;;30.35;6.65;;;;;;;19.11;42.70;93306.03;4988993;28;20033;-77
2023/10/25 09:48:19;;;;;;;30.27;7.05;;;;;;;18.59;42.05;93281.06;5016561;28;20519;-76
2023/10/25 09:51:17;;;;;;;33.42;8.05;;;;;;;18.79;42.71;93306.63;5016625;28;20037;-75
2023/10/25 09:54:09;;;;;;;30.73;6.53;;;;;;;18.89;42.91;93303.22;4990985;28;20033;-79
2023/10/25 09:56:39;;;;;;;38.45;6.93;;;;;;;18.99;43.36;93272.09;5011332;28;20052;-77
2023/10/25 09:59:07;;;;;;;40.63;9.15;;;;;;;19.11;42.83;93289.84;4997858;28;20037;-78
2023/10/25 10:01:38;;;;;;;36.67;9.07;;;;;;;19.16;42.50;93284.09;5015645;28;20272;-78
2023/10/25 10:04:32;;;;;;;43.33;7.43;;;;;;;19.16;41.68;93259.84;5011585;28;20046;-77
2023/10/25 10:07:21;;;;;;;34.03;6.70;;;;;;;19.48;40.36;93271.50;4986244;28;20041;-78
2023/10/25 10:10:08;;;;;;;46.35;8.25;;;;;;;19.63;39.64;93265.00;5007803;28;20076;-78
2023/10/25 10:12:35;;;;;;;61.70;9.10;;;;;;;19.70;39.70;93239.97;5010213;28;20056;-77
2023/10/25 10:15:01;;;;;;;46.60;7.43;;;;;;;19.72;39.57;93248.41;5016767;28;20071;-78
2023/10/25 10:17:28;;;;;;;50.45;8.25;;;;;;;19.85;38.83;93252.28;5011641;28;20474;-77
2023/10/25 10:19:56;;;;;;;39.20;7.80;;;;;;;19.85;39.53;93246.13;4995487;28;20493;-77
2023/10/25 10:22:21;;;;;;;43.45;7.00;;;;;;;19.98;39.02;93242.66;5013591;28;20108;-77
2023/10/25 10:24:49;;;;;;;66.75;9.27;;;;;;;20.01;38.94;93246.50;5015304;28;20052;-77
2023/10/25 10:27:27;;;;;;;53.60;8.25;;;;;;;20.06;39.25;93246.91;5015476;28;20095;-78
2023/10/25 10:29:53;;;;;;;51.28;7.82;;;;;;;20.14;38.59;93226.09;5014735;28;20042;-77
2023/10/25 10:32:19;;;;;;;69.43;10.75;;;;;;;20.10;38.68;93225.28;5014914;28;20099;-78
2023/10/25 10:34:45;;;;;;;60.92;9.23;;;;;;;20.05;38.88;93214.88;5016698;28;20025;-77
2023/10/25 10:37:22;;;;;;;52.75;8.43;;;;;;;20.29;38.11;93224.91;5016415;28;20048;-76
2023/10/25 10:39:56;;;;;;;49.70;8.55;;;;;;;20.25;39.03;93229.56;5014031;28;20033;-79
2023/10/25 10:42:30;;;;;;;79.35;11.18;;;;;;;20.30;38.04;93229.16;5012798;28;20072;-78
2023/10/25 10:45:03;;;;;;;47.58;8.73;;;;;;;20.38;38.37;93227.25;5016933;28;20049;-78
2023/10/25 10:48:06;;;;;;;56.95;8.23;;;;;;;20.43;38.02;93232.25;5006865;28;20617;-77
2023/10/25 10:50:39;;;;;;;64.57;9.40;;;;;;;20.56;37.92;93225.25;5013602;28;20049;-78
2023/10/25 10:53:04;;;;;;;59.28;9.65;;;;;;;20.38;38.09;93182.09;5015068;28;20021;-79
2023/10/25 10:55:40;;;;;;;46.42;6.47;;;;;;;20.60;37.62;93209.81;5013912;28;20379;-77
2023/10/25 10:58:05;;;;;;;36.08;8.13;;;;;;;20.60;37.41;93215.22;5010233;28;20037;-77
2023/10/25 11:00:31;;;;;;;63.60;8.52;;;;;;;20.41;37.73;93192.13;5015156;28;20033;-78
2023/10/25 11:03:00;;;;;;;50.03;7.68;;;;;;;20.44;37.97;93196.72;5015718;28;20029;-78
2023/10/25 11:05:25;;;;;;;54.88;10.55;;;;;;;20.58;38.29;93212.88;5008127;28;20076;-77
2023/10/25 11:07:53;;;;;;;56.15;8.82;;;;;;;20.67;37.73;93203.63;5013926;28;20880;-77
2023/10/25 11:10:19;;;;;;;43.08;7.55;;;;;;;20.58;38.81;93199.38;5014724;28;20053;-77
2023/10/25 11:12:45;;;;;;;56.70;9.20;;;;;;;20.69;38.02;93201.28;5017465;28;20043;-77
2023/10/25 11:15:12;;;;;;;55.45;10.50;;;;;;;20.72;38.46;93197.81;5015042;28;20042;-78
2023/10/25 11:17:38;;;;;;;56.15;10.70;;;;;;;20.80;38.46;93204.72;5015399;28;20029;-79
2023/10/25 11:20:05;;;;;;;49.70;7.88;;;;;;;20.89;37.50;93205.09;5021216;28;20499;-79
2023/10/25 11:22:31;;;;;;;49.60;7.25;;;;;;;20.85;37.59;93215.13;5022418;28;20055;-79
2023/10/25 11:24:57;;;;;;;51.88;8.27;;;;;;;20.90;37.15;93212.06;4998001;28;20045;-77